createdAt,value
2018-12-04T00:00:57.850Z,98787.08
2018-12-04T00:06:01.246Z,98803.73
2018-12-04T00:11:04.782Z,98801.55
2018-12-04T00:16:08.088Z,98804.23
2018-12-04T00:21:11.419Z,98817.05
2018-12-04T00:26:14.722Z,98817.20
2018-12-04T00:31:18.015Z,98824.78
2018-12-04T00:36:21.347Z,98837.75
2018-12-04T00:41:24.676Z,98844.14
2018-12-04T00:46:28.040Z,98846.98
2018-12-04T00:51:31.376Z,98842.72
2018-12-04T00:56:34.799Z,98847.91
2018-12-04T01:01:38.103Z,98849.69
2018-12-04T01:06:41.401Z,98852.18
2018-12-04T01:11:44.915Z,98859.84
2018-12-04T01:16:48.224Z,98864.49
2018-12-04T01:21:51.730Z,98870.18
2018-12-04T01:26:55.059Z,98873.99
2018-12-04T01:31:58.373Z,98881.02
2018-12-04T01:37:01.758Z,98883.86
2018-12-04T01:42:05.291Z,98883.63
2018-12-04T01:47:08.762Z,98881.86
2018-12-04T01:52:12.166Z,98894.97
2018-12-04T01:57:15.495Z,98891.84
2018-12-04T02:02:18.902Z,98910.34
2018-12-04T02:07:22.196Z,98906.06
2018-12-04T02:12:25.517Z,98906.71
2018-12-04T02:17:28.843Z,98907.85
2018-12-04T02:22:32.288Z,98913.85
2018-12-04T02:27:35.725Z,98922.07
2018-12-04T02:32:39.049Z,98920.88
2018-12-04T02:37:42.349Z,98917.59
2018-12-04T02:42:45.682Z,98919.44
2018-12-04T02:47:48.983Z,98929.36
2018-12-04T02:52:52.362Z,98937.05
2018-12-04T02:57:55.682Z,98939.50
2018-12-04T03:02:58.993Z,98944.27
2018-12-04T03:08:02.402Z,98955.88
2018-12-04T03:13:05.700Z,98969.59
2018-12-04T03:18:09.113Z,98966.05
2018-12-04T03:23:12.412Z,98977.11
2018-12-04T03:28:15.931Z,98978.71
2018-12-04T03:33:30.473Z,98991.08
2018-12-04T03:38:33.866Z,99014.23
2018-12-04T03:43:37.244Z,99013.88
2018-12-04T03:48:40.653Z,99104.01
2018-12-04T03:53:43.962Z,99102.56
2018-12-04T03:58:47.435Z,99113.32
2018-12-04T04:03:50.807Z,99122.88
2018-12-04T04:08:54.175Z,99140.00
2018-12-04T04:13:57.514Z,99157.59
2018-12-04T04:19:01.042Z,99173.03
2018-12-04T04:24:04.423Z,99190.66
2018-12-04T04:29:07.732Z,99212.67
2018-12-04T04:34:11.148Z,99227.56
2018-12-04T04:39:14.516Z,99236.38
2018-12-04T04:44:17.853Z,99246.39
2018-12-04T04:49:21.209Z,99267.70
2018-12-04T04:54:24.546Z,99273.80
2018-12-04T04:59:27.900Z,99287.88
2018-12-04T05:04:31.291Z,99304.75
2018-12-04T05:09:34.635Z,99321.52
2018-12-04T05:14:37.972Z,99349.03
2018-12-04T05:19:41.391Z,99367.11
2018-12-04T05:24:44.746Z,99385.22
2018-12-04T05:29:48.075Z,99405.87
2018-12-04T05:34:51.410Z,99422.02
2018-12-04T05:39:54.907Z,99435.55
2018-12-04T05:44:58.354Z,99448.77
2018-12-04T05:50:01.901Z,99465.03
2018-12-04T05:55:06.183Z,99483.95
2018-12-04T06:00:10.918Z,99499.73
2018-12-04T06:05:14.400Z,99501.56
2018-12-04T06:10:17.707Z,99514.64
2018-12-04T06:15:21.038Z,99532.61
2018-12-04T06:20:24.534Z,99545.33
2018-12-04T06:25:28.203Z,99550.22
2018-12-04T06:30:31.535Z,99572.67
2018-12-04T06:35:35.017Z,99587.09
2018-12-04T06:40:38.345Z,99594.31
2018-12-04T06:45:41.672Z,99617.16
2018-12-04T06:50:44.995Z,99634.28
2018-12-04T06:55:48.319Z,99654.94
2018-12-04T07:00:51.794Z,99669.35
2018-12-04T07:05:55.963Z,99688.66
2018-12-04T07:10:59.271Z,99710.27
2018-12-04T07:16:02.572Z,99724.69
2018-12-04T07:21:05.883Z,99726.64
2018-12-04T07:26:09.257Z,99748.15
2018-12-04T07:31:13.187Z,99756.70
2018-12-04T07:36:16.578Z,99771.82
2018-12-04T07:41:19.902Z,99780.30
2018-12-04T07:46:23.323Z,99817.11
2018-12-04T07:51:26.782Z,99831.52
2018-12-04T07:56:30.082Z,99840.11
2018-12-04T08:01:33.392Z,99864.49
2018-12-04T08:06:36.788Z,99878.69
2018-12-04T08:11:40.218Z,99882.80
2018-12-04T08:16:43.547Z,99898.47
2018-12-04T08:21:46.867Z,99908.42
2018-12-04T08:26:50.748Z,99905.44
2018-12-04T08:31:54.080Z,99912.21
2018-12-04T08:36:57.405Z,99931.05
2018-12-04T08:42:00.726Z,99941.86
2018-12-04T08:47:04.231Z,99957.50
2018-12-04T08:52:07.627Z,99973.27
2018-12-04T08:57:10.930Z,99980.53
2018-12-04T09:02:14.259Z,99996.28
2018-12-04T09:07:17.747Z,99995.31
2018-12-04T09:12:21.154Z,100009.03
2018-12-04T09:17:24.575Z,100014.34
2018-12-04T09:22:27.929Z,100025.09
2018-12-04T09:27:31.417Z,100028.27
2018-12-04T09:32:34.756Z,100049.28
2018-12-04T09:37:38.149Z,100052.82
2018-12-04T09:42:41.462Z,100054.16
2018-12-04T09:47:44.847Z,100072.86
2018-12-04T09:52:48.156Z,100070.28
2018-12-04T09:57:51.451Z,100074.73
2018-12-04T10:02:54.851Z,100087.68
2018-12-04T10:07:58.223Z,100086.34
2018-12-04T10:13:01.898Z,100097.20
2018-12-04T10:18:05.238Z,100090.30
2018-12-04T10:23:08.727Z,100108.50
2018-12-04T10:28:12.083Z,100118.20
2018-12-04T10:33:15.479Z,100122.84
2018-12-04T10:38:18.819Z,100131.71
2018-12-04T10:43:22.214Z,100142.58
2018-12-04T10:48:25.583Z,100140.86
2018-12-04T10:53:28.926Z,100153.05
2018-12-04T10:58:32.243Z,100159.28
2018-12-04T11:03:38.965Z,100160.45
2018-12-04T11:08:42.278Z,100178.53
2018-12-04T11:13:45.597Z,100174.20
2018-12-04T11:18:48.934Z,100173.77
2018-12-04T11:23:52.274Z,100186.95
2018-12-04T11:28:55.596Z,100197.16
2018-12-04T11:33:58.901Z,100215.11
2018-12-04T11:39:02.291Z,100220.91
2018-12-04T11:44:05.685Z,100223.30
2018-12-04T11:49:09.119Z,100220.60
2018-12-04T11:54:12.648Z,100235.77
2018-12-04T11:59:16.059Z,100241.70
2018-12-04T12:04:19.368Z,100248.64
2018-12-04T12:09:22.808Z,100252.16
2018-12-04T12:14:26.145Z,100261.09
2018-12-04T12:19:29.526Z,100270.13
2018-12-04T12:24:33.040Z,100275.02
2018-12-04T12:29:36.475Z,100282.97
2018-12-04T12:34:39.778Z,100286.15
2018-12-04T12:39:43.110Z,100289.32
2018-12-04T12:44:47.631Z,100308.25
2018-12-04T12:49:51.056Z,100316.98
2018-12-04T12:54:54.415Z,100321.32
2018-12-04T12:59:57.821Z,100332.16
2018-12-04T13:05:01.154Z,100336.67
2018-12-04T13:10:05.751Z,100340.06
2018-12-04T13:15:09.773Z,100352.53
2018-12-04T13:20:13.236Z,100357.70
2018-12-04T13:25:16.648Z,100365.49
2018-12-04T13:30:19.959Z,100369.70
2018-12-04T13:35:23.463Z,100385.27
2018-12-04T13:40:26.866Z,100392.36
2018-12-04T13:45:30.204Z,100398.78
2018-12-04T13:50:33.641Z,100409.16
2018-12-04T13:55:36.976Z,100425.17
2018-12-04T14:00:40.456Z,100430.77
2018-12-04T14:05:43.879Z,100434.01
2018-12-04T14:10:47.237Z,100443.03
2018-12-04T14:15:50.784Z,100448.52
2018-12-04T14:20:54.230Z,100463.13
2018-12-04T14:25:57.553Z,100475.78
2018-12-04T14:31:00.861Z,100481.25
2018-12-04T14:36:04.436Z,100500.08
2018-12-04T14:41:07.861Z,100514.00
2018-12-04T14:46:11.189Z,100537.98
2018-12-04T14:51:14.508Z,100547.02
2018-12-04T14:56:17.812Z,100549.42
2018-12-04T15:01:21.212Z,100559.11
2018-12-04T15:06:24.684Z,100571.91
2018-12-04T15:11:28.201Z,100581.96
2018-12-04T15:16:31.698Z,100592.44
2018-12-04T15:21:35.039Z,100606.36
2018-12-04T15:26:38.355Z,100614.91
2018-12-04T15:31:41.726Z,100627.06
2018-12-04T15:36:45.382Z,100632.17
2018-12-04T15:41:48.806Z,100643.91
2018-12-04T15:46:52.553Z,100654.55
2018-12-04T15:51:55.967Z,100675.29
2018-12-04T15:56:59.348Z,100682.55
2018-12-04T16:02:02.868Z,100685.08
2018-12-04T16:07:06.445Z,100684.59
2018-12-04T16:12:10.091Z,100697.68
2018-12-04T16:17:15.314Z,100702.67
2018-12-04T16:22:18.910Z,100728.92
2018-12-04T16:27:22.205Z,100744.24
2018-12-04T16:32:25.671Z,100744.24
2018-12-04T16:37:28.995Z,100741.08
2018-12-04T16:42:32.303Z,100752.69
2018-12-04T16:47:35.751Z,100763.67
2018-12-04T16:52:39.067Z,100773.84
2018-12-04T16:57:43.016Z,100779.13
2018-12-04T17:02:46.362Z,100788.38
2018-12-04T17:07:49.668Z,100795.27
2018-12-04T17:12:52.993Z,100802.73
2018-12-04T17:17:57.445Z,100814.40
2018-12-04T17:23:00.764Z,100827.48
2018-12-04T17:28:04.117Z,100836.64
2018-12-04T17:33:07.511Z,100839.44
2018-12-04T17:38:10.847Z,100857.71
2018-12-04T17:43:14.586Z,100856.09
2018-12-04T17:48:18.052Z,100856.92
2018-12-04T17:53:21.430Z,100867.42
2018-12-04T17:58:24.819Z,100866.63
2018-12-04T18:03:28.130Z,100867.46
2018-12-04T18:08:31.448Z,100867.84
2018-12-04T18:13:34.763Z,100871.05
2018-12-04T18:18:38.171Z,100882.69
2018-12-04T18:23:41.502Z,100889.83
2018-12-04T18:28:44.880Z,100896.47
2018-12-04T18:33:48.498Z,100901.03
2018-12-04T18:38:51.849Z,100908.09
2018-12-04T18:43:55.157Z,100908.59
2018-12-04T18:48:58.526Z,100911.39
2018-12-04T18:54:01.830Z,100916.78
2018-12-04T18:59:05.251Z,100923.32
2018-12-04T19:04:08.711Z,100934.11
2018-12-04T19:09:12.097Z,100943.75
2018-12-04T19:14:15.619Z,100946.86
2018-12-04T19:19:19.006Z,100958.13
2018-12-04T19:24:23.595Z,100967.33
2018-12-04T19:29:27.012Z,100971.86
2018-12-04T19:34:30.882Z,100978.63
2018-12-04T19:39:34.275Z,100983.23
2018-12-04T19:44:37.599Z,100986.03
2018-12-04T19:54:43.413Z,100995.19
2018-12-04T19:59:47.311Z,100993.08
2018-12-04T20:04:51.447Z,101011.27
2018-12-04T20:09:54.847Z,101001.27
2018-12-04T20:14:58.345Z,101018.50
2018-12-04T20:20:01.868Z,101020.77
2018-12-04T20:25:07.532Z,101046.76
2018-12-04T20:30:11.274Z,101054.55
2018-12-04T20:35:14.649Z,101052.88
2018-12-04T20:40:17.995Z,101060.20
2018-12-04T20:45:21.413Z,101072.59
2018-12-04T20:50:25.051Z,101081.41
2018-12-04T20:55:28.721Z,101084.59
2018-12-04T21:00:32.206Z,101099.56
2018-12-04T21:05:35.615Z,101106.62
2018-12-04T21:10:38.972Z,101115.34
2018-12-04T21:15:42.314Z,101116.89
2018-12-04T21:20:45.662Z,101116.50
2018-12-04T21:25:49.476Z,101118.48
2018-12-04T21:30:58.157Z,101118.58
2018-12-04T21:36:07.128Z,101119.93
2018-12-04T21:41:14.641Z,101127.53
2018-12-04T21:46:23.316Z,101140.30
2018-12-04T21:51:26.728Z,101144.72
2018-12-04T21:56:31.091Z,101150.11
2018-12-04T22:01:34.564Z,101159.63
2018-12-04T22:06:37.925Z,101170.16
2018-12-04T22:11:41.362Z,101183.23
2018-12-04T22:16:44.786Z,101189.16
2018-12-04T22:21:48.164Z,101195.70
2018-12-04T22:26:51.850Z,101198.30
2018-12-04T22:31:55.249Z,101193.45
2018-12-04T22:36:58.690Z,101193.45
2018-12-04T22:42:02.180Z,101193.16
2018-12-04T22:47:05.690Z,101197.30
2018-12-04T22:52:09.038Z,101195.85
2018-12-04T22:57:12.398Z,101192.86
2018-12-04T23:02:16.071Z,101192.77
2018-12-04T23:07:19.467Z,101192.86
2018-12-04T23:12:23.030Z,101197.06
2018-12-04T23:17:26.354Z,101197.54
2018-12-04T23:22:29.776Z,101191.38
2018-12-04T23:27:33.249Z,101191.44
2018-12-04T23:32:36.616Z,101192.01
2018-12-04T23:37:43.178Z,101192.87
2018-12-04T23:42:46.513Z,101201.05
2018-12-04T23:47:49.903Z,101201.73
2018-12-04T23:52:53.285Z,101211.34
2018-12-04T23:57:56.732Z,101218.16
